PWSweather.com
Personal Weather Stations
Station Observations
KNCCHINA3
Red Tractor Trail, China Grove, NC 28023

Red Tractor TrailChina Grove, NC 28023

Lat: 35.59751, Lon: -80.60201

Elevation: 800

Station Type: Oregon Scientific WMR 968

http://www.joesweathergarage.com

High Low Average
Temperature 48.0°F8.9°F 38.7°F3.7°F 43.4°F6.3°F
Dew Point 47.5°F8.6°F 38.7°F3.7°F 42.6°F5.9°F
Winds 12.7 mph NE20.4 mph NE Calm Calm 4.3 mph 6.9 mph
Wind Gusts 20.2 mph32.5 mph -- 7.6 mph12.2 mph
Humidity 100% 83% 97%
Pressure 30.06 in1017.90 in 29.94 in1013.90 in -
Precipitation 6.93 in176.00 in - -
Hour Temp Dew Point Humidity Winds Wind Gusts Pressure Precip Precip Rate Daily Precip Total
12:00 AM 47.5°F8.6°C 47.5°F8.6°C 100% 3.9 mph NNE6.3 kmh NNE 8.6 mph13.8 kmh 30.03 in1016.9 mb 0.04 in1.0 mm 0.00 in/hr0.0 mm/hr 0.04 in1.0 mm
12:05 AM 47.5°F8.6°C 47.5°F8.6°C 100% 6.9 mph NNE11.1 kmh NNE 8.0 mph12.9 kmh 30.03 in1016.9 mb 0.04 in1.0 mm 0.00 in/hr0.0 mm/hr 0.04 in1.0 mm
12:11 AM 47.3°F8.5°C 47.3°F8.5°C 100% 6.7 mph NNE10.8 kmh NNE 10.8 mph17.4 kmh 30.03 in1016.9 mb 0.08 in2.0 mm 0.40 in/hr10.2 mm/hr 0.05 in1.3 mm
12:16 AM 47.3°F8.5°C 47.3°F8.5°C 100% 5.1 mph NNE8.2 kmh NNE 9.8 mph15.8 kmh 30.03 in1016.9 mb 0.08 in2.0 mm 0.00 in/hr0.0 mm/hr 0.05 in1.3 mm
12:22 AM 47.1°F8.4°C 47.1°F8.4°C 100% 3.9 mph NNE6.3 kmh NNE 8.0 mph12.9 kmh 30.03 in1016.9 mb 0.08 in2.0 mm 0.00 in/hr0.0 mm/hr 0.05 in1.3 mm
12:27 AM 46.9°F8.3°C 46.9°F8.3°C 100% 3.4 mph NNE5.5 kmh NNE 8.0 mph12.9 kmh 30.06 in1017.9 mb 0.00 in0.0 mm 0.00 in/hr0.0 mm/hr 0.05 in1.3 mm
12:32 AM 46.9°F8.3°C 46.9°F8.3°C 100% 6.6 mph NNE10.6 kmh NNE 8.6 mph13.8 kmh 30.06 in1017.9 mb 0.00 in0.0 mm 0.00 in/hr0.0 mm/hr 0.05 in1.3 mm
12:37 AM 46.8°F8.2°C 46.8°F8.2°C 100% 6.7 mph NNE10.8 kmh NNE 11.2 mph18.0 kmh 30.06 in1017.9 mb 0.00 in0.0 mm 0.00 in/hr0.0 mm/hr 0.05 in1.3 mm
12:42 AM 46.6°F8.1°C 46.6°F8.1°C 100% 5.3 mph NNE8.5 kmh NNE 11.2 mph18.0 kmh 30.00 in1015.9 mb 0.00 in0.0 mm 0.00 in/hr0.0 mm/hr 0.05 in1.3 mm
12:47 AM 46.6°F8.1°C 46.6°F8.1°C 100% 4.7 mph NNE7.6 kmh NNE 7.2 mph11.6 kmh 30.00 in1015.9 mb 0.00 in0.0 mm 0.00 in/hr0.0 mm/hr 0.05 in1.3 mm
12:53 AM 46.4°F8.0°C 46.4°F8.0°C 100% 5.0 mph NNE8.0 kmh NNE 9.8 mph15.8 kmh 30.00 in1015.9 mb 0.00 in0.0 mm 0.00 in/hr0.0 mm/hr 0.05 in1.3 mm
12:57 AM 46.4°F8.0°C 46.4°F8.0°C 100% 4.5 mph NNE7.2 kmh NNE 9.8 mph15.8 kmh 30.03 in1016.9 mb 0.00 in0.0 mm 0.00 in/hr0.0 mm/hr 0.05 in1.3 mm
01:02 AM 46.4°F8.0°C 46.4°F8.0°C 100% 6.5 mph NNE10.5 kmh NNE 9.8 mph15.8 kmh 30.03 in1016.9 mb 0.00 in0.0 mm 0.00 in/hr0.0 mm/hr 0.05 in1.3 mm
01:07 AM 46.2°F7.9°C 46.2°F7.9°C 100% 7.0 mph NNE11.3 kmh NNE 11.6 mph18.7 kmh 30.03 in1016.9 mb 0.00 in0.0 mm 0.00 in/hr0.0 mm/hr 0.05 in1.3 mm
01:13 AM 46.2°F7.9°C 46.2°F7.9°C 100% 6.7 mph NNE10.8 kmh NNE 11.6 mph18.7 kmh 29.97 in1014.9 mb 0.00 in0.0 mm 0.00 in/hr0.0 mm/hr 0.05 in1.3 mm
01:18 AM 46.0°F7.8°C 46.0°F7.8°C 100% 7.4 mph NNE11.9 kmh NNE 12.6 mph20.3 kmh 29.97 in1014.9 mb 0.00 in0.0 mm 0.00 in/hr0.0 mm/hr 0.05 in1.3 mm
01:23 AM 45.9°F7.7°C 45.9°F7.7°C 100% 3.5 mph NNE5.6 kmh NNE 12.6 mph20.3 kmh 29.97 in1014.9 mb 0.04 in1.0 mm 0.48 in/hr12.2 mm/hr 0.09 in2.3 mm
01:28 AM 45.9°F7.7°C 45.9°F7.7°C 100% 5.5 mph NNE8.9 kmh NNE 9.0 mph14.5 kmh 29.97 in1014.9 mb 0.00 in0.0 mm 0.00 in/hr0.0 mm/hr 0.09 in2.3 mm
01:33 AM 45.7°F7.6°C 45.7°F7.6°C 100% 5.5 mph NNE8.9 kmh NNE 7.6 mph12.2 kmh 29.97 in1014.9 mb 0.00 in0.0 mm 0.00 in/hr0.0 mm/hr 0.09 in2.3 mm
01:38 AM 45.5°F7.5°C 45.5°F7.5°C 100% 8.0 mph NNE12.9 kmh NNE 12.0 mph19.3 kmh 29.97 in1014.9 mb 0.00 in0.0 mm 0.00 in/hr0.0 mm/hr 0.09 in2.3 mm
01:43 AM 45.5°F7.5°C 45.5°F7.5°C 100% 3.6 mph NNE5.8 kmh NNE 12.0 mph19.3 kmh 29.97 in1014.9 mb 0.00 in0.0 mm 0.00 in/hr0.0 mm/hr 0.09 in2.3 mm
01:48 AM 45.5°F7.5°C 45.5°F7.5°C 100% 6.1 mph NNE9.8 kmh NNE 8.0 mph12.9 kmh 29.97 in1014.9 mb 0.00 in0.0 mm 0.00 in/hr0.0 mm/hr 0.09 in2.3 mm
01:53 AM 45.3°F7.4°C 45.3°F7.4°C 100% 8.5 mph NNE13.7 kmh NNE 10.8 mph17.4 kmh 29.97 in1014.9 mb 0.00 in0.0 mm 0.00 in/hr0.0 mm/hr 0.09 in2.3 mm
01:58 AM 45.3°F7.4°C 45.3°F7.4°C 100% 8.9 mph NNE14.3 kmh NNE 11.6 mph18.7 kmh 30.00 in1015.9 mb 0.04 in1.0 mm 0.48 in/hr12.2 mm/hr 0.13 in3.3 mm
02:04 AM 45.1°F7.3°C 45.1°F7.3°C 100% 8.5 mph NNE13.7 kmh NNE 11.6 mph18.7 kmh 30.00 in1015.9 mb 0.04 in1.0 mm 0.00 in/hr0.0 mm/hr 0.13 in3.3 mm
02:09 AM 45.0°F7.2°C 45.0°F7.2°C 100% 9.9 mph NNE15.9 kmh NNE 13.8 mph22.2 kmh 30.00 in1015.9 mb 0.04 in1.0 mm 0.00 in/hr0.0 mm/hr 0.13 in3.3 mm
02:14 AM 45.0°F7.2°C 45.0°F7.2°C 100% 11.2 mph NE18.0 kmh NE 15.6 mph25.1 kmh 29.97 in1014.9 mb 0.04 in1.0 mm 0.00 in/hr0.0 mm/hr 0.13 in3.3 mm
02:19 AM 44.8°F7.1°C 44.8°F7.1°C 100% 9.1 mph NE14.6 kmh NE 15.6 mph25.1 kmh 29.97 in1014.9 mb 0.04 in1.0 mm 0.00 in/hr0.0 mm/hr 0.13 in3.3 mm
02:24 AM 44.8°F7.1°C 44.8°F7.1°C 100% 8.0 mph NE12.9 kmh NE 15.6 mph25.1 kmh 29.97 in1014.9 mb 0.04 in1.0 mm 0.00 in/hr0.0 mm/hr 0.13 in3.3 mm
02:29 AM 44.8°F7.1°C 44.8°F7.1°C 100% 6.1 mph NNE9.8 kmh NNE 11.6 mph18.7 kmh 29.97 in1014.9 mb 0.00 in0.0 mm 0.00 in/hr0.0 mm/hr 0.13 in3.3 mm
02:34 AM 44.8°F7.1°C 44.8°F7.1°C 100% 4.4 mph NE7.1 kmh NE 11.2 mph18.0 kmh 29.97 in1014.9 mb 0.00 in0.0 mm 0.00 in/hr0.0 mm/hr 0.13 in3.3 mm
02:39 AM 44.8°F7.1°C 44.8°F7.1°C 100% 9.5 mph NE15.3 kmh NE 13.0 mph20.9 kmh 29.97 in1014.9 mb 0.00 in0.0 mm 0.00 in/hr0.0 mm/hr 0.13 in3.3 mm
02:44 AM 44.6°F7.0°C 44.6°F7.0°C 100% 6.8 mph NNE10.9 kmh NNE 13.0 mph20.9 kmh 30.00 in1015.9 mb 0.00 in0.0 mm 0.00 in/hr0.0 mm/hr 0.13 in3.3 mm
02:49 AM 44.6°F7.0°C 44.6°F7.0°C 100% 6.7 mph NNE10.8 kmh NNE 11.6 mph18.7 kmh 30.00 in1015.9 mb 0.00 in0.0 mm 0.00 in/hr0.0 mm/hr 0.13 in3.3 mm
02:54 AM 44.4°F6.9°C 44.4°F6.9°C 100% 9.2 mph NNE14.8 kmh NNE 13.0 mph20.9 kmh 30.00 in1015.9 mb 0.00 in0.0 mm 0.00 in/hr0.0 mm/hr 0.13 in3.3 mm
02:59 AM 44.2°F6.8°C 44.2°F6.8°C 100% 10.2 mph NNE16.4 kmh NNE 15.2 mph24.5 kmh 29.97 in1014.9 mb 0.04 in1.0 mm 0.48 in/hr12.2 mm/hr 0.17 in4.3 mm
03:04 AM 44.2°F6.8°C 44.2°F6.8°C 100% 7.8 mph NNE12.6 kmh NNE 15.2 mph24.5 kmh 29.97 in1014.9 mb 0.04 in1.0 mm 0.00 in/hr0.0 mm/hr 0.17 in4.3 mm
03:09 AM 44.1°F6.7°C 44.1°F6.7°C 100% 9.1 mph NNE14.6 kmh NNE 12.0 mph19.3 kmh 29.97 in1014.9 mb 0.04 in1.0 mm 0.00 in/hr0.0 mm/hr 0.17 in4.3 mm
03:14 AM 44.1°F6.7°C 44.1°F6.7°C 100% 7.7 mph NNE12.4 kmh NNE 12.6 mph20.3 kmh 29.97 in1014.9 mb 0.04 in1.0 mm 0.00 in/hr0.0 mm/hr 0.17 in4.3 mm
03:19 AM 43.9°F6.6°C 43.9°F6.6°C 100% 6.0 mph NNE9.7 kmh NNE 12.6 mph20.3 kmh 29.97 in1014.9 mb 0.04 in1.0 mm 0.00 in/hr0.0 mm/hr 0.17 in4.3 mm
03:24 AM 43.7°F6.5°C 43.7°F6.5°C 100% 7.1 mph N11.4 kmh N 12.6 mph20.3 kmh 29.97 in1014.9 mb 0.04 in1.0 mm 0.00 in/hr0.0 mm/hr 0.17 in4.3 mm
03:29 AM 43.7°F6.5°C 43.7°F6.5°C 100% 7.0 mph N11.3 kmh N 12.6 mph20.3 kmh 30.03 in1016.9 mb 0.04 in1.0 mm 0.00 in/hr0.0 mm/hr 0.21 in5.3 mm
03:35 AM 43.5°F6.4°C 43.5°F6.4°C 100% 8.0 mph NNE12.9 kmh NNE 17.0 mph27.4 kmh 30.03 in1016.9 mb 0.04 in1.0 mm 0.00 in/hr0.0 mm/hr 0.21 in5.3 mm
03:40 AM 43.5°F6.4°C 43.5°F6.4°C 100% 8.1 mph NNE13.0 kmh NNE 17.0 mph27.4 kmh 30.00 in1015.9 mb 0.04 in1.0 mm 0.00 in/hr0.0 mm/hr 0.21 in5.3 mm
03:45 AM 43.3°F6.3°C 43.3°F6.3°C 100% 7.9 mph NNE12.7 kmh NNE 12.0 mph19.3 kmh 30.00 in1015.9 mb 0.08 in2.0 mm 0.48 in/hr12.2 mm/hr 0.26 in6.6 mm
03:50 AM 43.2°F6.2°C 43.2°F6.2°C 100% 7.1 mph NE11.4 kmh NE 12.6 mph20.3 kmh 30.00 in1015.9 mb 0.08 in2.0 mm 0.00 in/hr0.0 mm/hr 0.26 in6.6 mm
03:55 AM 43.2°F6.2°C 43.2°F6.2°C 100% 4.7 mph NE7.6 kmh NE 12.6 mph20.3 kmh 29.97 in1014.9 mb 0.08 in2.0 mm 0.00 in/hr0.0 mm/hr 0.26 in6.6 mm
04:00 AM 43.2°F6.2°C 43.2°F6.2°C 100% 8.6 mph NNE13.8 kmh NNE 13.0 mph20.9 kmh 29.97 in1014.9 mb 0.08 in2.0 mm 0.00 in/hr0.0 mm/hr 0.26 in6.6 mm
04:07 AM 43.0°F6.1°C 43.0°F6.1°C 100% 11.6 mph NNE18.7 kmh NNE 19.6 mph31.5 kmh 29.97 in1014.9 mb 0.08 in2.0 mm 0.00 in/hr0.0 mm/hr 0.26 in6.6 mm
04:12 AM 43.0°F6.1°C 43.0°F6.1°C 100% 9.7 mph NE15.6 kmh NE 19.6 mph31.5 kmh 29.94 in1013.9 mb 0.08 in2.0 mm 0.00 in/hr0.0 mm/hr 0.26 in6.6 mm
04:17 AM 43.0°F6.1°C 43.0°F6.1°C 100% 9.3 mph NE15.0 kmh NE 17.4 mph28.0 kmh 29.94 in1013.9 mb 0.08 in2.0 mm 0.00 in/hr0.0 mm/hr 0.26 in6.6 mm
04:22 AM 43.0°F6.1°C 43.0°F6.1°C 100% 10.6 mph NE17.1 kmh NE 17.4 mph28.0 kmh 29.94 in1013.9 mb 0.08 in2.0 mm 0.00 in/hr0.0 mm/hr 0.26 in6.6 mm
04:27 AM 43.0°F6.1°C 43.0°F6.1°C 100% 12.7 mph NE20.4 kmh NE 20.2 mph32.5 kmh 29.94 in1013.9 mb 0.04 in1.0 mm 0.00 in/hr0.0 mm/hr 0.30 in7.6 mm
04:32 AM 43.0°F6.1°C 43.0°F6.1°C 100% 5.4 mph NE8.7 kmh NE 20.2 mph32.5 kmh 29.94 in1013.9 mb 0.04 in1.0 mm 0.00 in/hr0.0 mm/hr 0.30 in7.6 mm
04:37 AM 42.8°F6.0°C 42.8°F6.0°C 100% 3.9 mph NE6.3 kmh NE 20.2 mph32.5 kmh 29.94 in1013.9 mb 0.04 in1.0 mm 0.00 in/hr0.0 mm/hr 0.30 in7.6 mm
04:42 AM 42.8°F6.0°C 42.8°F6.0°C 100% 5.6 mph NE9.0 kmh NE 11.6 mph18.7 kmh 29.94 in1013.9 mb 0.04 in1.0 mm 0.00 in/hr0.0 mm/hr 0.30 in7.6 mm
04:47 AM 42.8°F6.0°C 42.8°F6.0°C 100% 7.0 mph NNE11.3 kmh NNE 13.0 mph20.9 kmh 29.94 in1013.9 mb 0.04 in1.0 mm 0.00 in/hr0.0 mm/hr 0.30 in7.6 mm
04:52 AM 42.8°F6.0°C 42.8°F6.0°C 100% 7.5 mph NE12.1 kmh NE 13.0 mph20.9 kmh 29.94 in1013.9 mb 0.04 in1.0 mm 0.00 in/hr0.0 mm/hr 0.30 in7.6 mm
04:58 AM 42.8°F6.0°C 42.8°F6.0°C 100% 4.8 mph NE7.7 kmh NE 12.0 mph19.3 kmh 29.97 in1014.9 mb 0.04 in1.0 mm 0.00 in/hr0.0 mm/hr 0.30 in7.6 mm
05:03 AM 43.0°F6.1°C 43.0°F6.1°C 100% 5.6 mph NNE9.0 kmh NNE 7.6 mph12.2 kmh 29.97 in1014.9 mb 0.08 in2.0 mm 0.04 in/hr1.0 mm/hr 0.34 in8.6 mm
05:08 AM 42.8°F6.0°C 42.8°F6.0°C 100% 8.0 mph NNE12.9 kmh NNE 12.0 mph19.3 kmh 29.97 in1014.9 mb 0.08 in2.0 mm 0.00 in/hr0.0 mm/hr 0.34 in8.6 mm
05:13 AM 42.8°F6.0°C 42.8°F6.0°C 100% 7.6 mph NNE12.2 kmh NNE 17.8 mph28.6 kmh 29.94 in1013.9 mb 0.12 in3.0 mm 0.48 in/hr12.2 mm/hr 0.38 in9.7 mm
05:18 AM 42.8°F6.0°C 42.8°F6.0°C 100% 8.2 mph NNE13.2 kmh NNE 17.8 mph28.6 kmh 29.94 in1013.9 mb 0.12 in3.0 mm 0.00 in/hr0.0 mm/hr 0.38 in9.7 mm
05:23 AM 42.6°F5.9°C 42.6°F5.9°C 100% 3.8 mph NE6.1 kmh NE 11.6 mph18.7 kmh 29.94 in1013.9 mb 0.12 in3.0 mm 0.00 in/hr0.0 mm/hr 0.38 in9.7 mm
05:28 AM 42.6°F5.9°C 42.6°F5.9°C 100% 7.8 mph NE12.6 kmh NE 11.6 mph18.7 kmh 29.97 in1014.9 mb 0.00 in0.0 mm 0.00 in/hr0.0 mm/hr 0.38 in9.7 mm
05:33 AM 42.6°F5.9°C 42.6°F5.9°C 100% 4.1 mph NE6.6 kmh NE 12.0 mph19.3 kmh 29.97 in1014.9 mb 0.04 in1.0 mm 0.48 in/hr12.2 mm/hr 0.42 in10.7 mm
05:39 AM 42.6°F5.9°C 42.6°F5.9°C 100% 7.0 mph NE11.3 kmh NE 11.6 mph18.7 kmh 29.97 in1014.9 mb 0.08 in2.0 mm 0.40 in/hr10.2 mm/hr 0.46 in11.7 mm
05:44 AM 42.8°F6.0°C 42.8°F6.0°C 100% 7.8 mph NE12.6 kmh NE 12.6 mph20.3 kmh 30.00 in1015.9 mb 0.08 in2.0 mm 0.00 in/hr0.0 mm/hr 0.46 in11.7 mm
05:49 AM 42.8°F6.0°C 42.8°F6.0°C 100% 5.2 mph NE8.4 kmh NE 12.6 mph20.3 kmh 30.00 in1015.9 mb 0.13 in3.3 mm 0.60 in/hr15.2 mm/hr 0.50 in12.7 mm
05:54 AM 42.8°F6.0°C 42.8°F6.0°C 100% 6.4 mph NE10.3 kmh NE 11.6 mph18.7 kmh 30.00 in1015.9 mb 0.13 in3.3 mm 0.00 in/hr0.0 mm/hr 0.50 in12.7 mm
05:59 AM 42.8°F6.0°C 42.8°F6.0°C 100% 6.1 mph NE9.8 kmh NE 11.6 mph18.7 kmh 30.00 in1015.9 mb 0.17 in4.3 mm 0.48 in/hr12.2 mm/hr 0.54 in13.7 mm
06:04 AM 42.8°F6.0°C 42.8°F6.0°C 100% 8.6 mph NE13.8 kmh NE 12.0 mph19.3 kmh 30.00 in1015.9 mb 0.17 in4.3 mm 0.00 in/hr0.0 mm/hr 0.54 in13.7 mm
06:09 AM 42.6°F5.9°C 42.6°F5.9°C 100% 9.0 mph NE14.5 kmh NE 12.6 mph20.3 kmh 30.00 in1015.9 mb 0.21 in5.3 mm 0.48 in/hr12.2 mm/hr 0.59 in15.0 mm
06:14 AM 42.6°F5.9°C 42.6°F5.9°C 100% 6.7 mph NNE10.8 kmh NNE 12.6 mph20.3 kmh 29.94 in1013.9 mb 0.21 in5.3 mm 0.00 in/hr0.0 mm/hr 0.59 in15.0 mm
06:19 AM 42.6°F5.9°C 42.6°F5.9°C 100% 7.3 mph NNE11.7 kmh NNE 11.6 mph18.7 kmh 29.94 in1013.9 mb 0.25 in6.4 mm 0.48 in/hr12.2 mm/hr 0.63 in16.0 mm
06:24 AM 42.8°F6.0°C 42.8°F6.0°C 100% 3.4 mph ENE5.5 kmh ENE 11.6 mph18.7 kmh 29.94 in1013.9 mb 0.25 in6.4 mm 0.00 in/hr0.0 mm/hr 0.63 in16.0 mm
06:30 AM 42.8°F6.0°C 42.8°F6.0°C 100% 7.3 mph NE11.7 kmh NE 10.8 mph17.4 kmh 29.97 in1014.9 mb 0.00 in0.0 mm 0.00 in/hr0.0 mm/hr 0.63 in16.0 mm
06:35 AM 42.8°F6.0°C 42.8°F6.0°C 100% 6.6 mph NE10.6 kmh NE 13.8 mph22.2 kmh 29.97 in1014.9 mb 0.00 in0.0 mm 0.00 in/hr0.0 mm/hr 0.63 in16.0 mm
06:40 AM 42.8°F6.0°C 42.8°F6.0°C 100% 2.6 mph ENE4.2 kmh ENE 13.8 mph22.2 kmh 30.00 in1015.9 mb 0.00 in0.0 mm 0.00 in/hr0.0 mm/hr 0.63 in16.0 mm
06:45 AM 42.8°F6.0°C 42.8°F6.0°C 100% 4.9 mph NNE7.9 kmh NNE 8.6 mph13.8 kmh 30.00 in1015.9 mb 0.04 in1.0 mm 0.48 in/hr12.2 mm/hr 0.67 in17.0 mm
06:50 AM 42.8°F6.0°C 42.8°F6.0°C 100% 3.0 mph NNE4.8 kmh NNE 8.6 mph13.8 kmh 30.00 in1015.9 mb 0.04 in1.0 mm 0.00 in/hr0.0 mm/hr 0.67 in17.0 mm
06:55 AM 43.0°F6.1°C 43.0°F6.1°C 100% 6.7 mph NE10.8 kmh NE 7.6 mph12.2 kmh 30.03 in1016.9 mb 0.04 in1.0 mm 0.00 in/hr0.0 mm/hr 0.67 in17.0 mm
07:00 AM 43.0°F6.1°C 43.0°F6.1°C 100% 7.6 mph NE12.2 kmh NE 9.8 mph15.8 kmh 30.03 in1016.9 mb 0.04 in1.0 mm 0.00 in/hr0.0 mm/hr 0.67 in17.0 mm
07:05 AM 43.0°F6.1°C 43.0°F6.1°C 100% 9.5 mph NE15.3 kmh NE 11.6 mph18.7 kmh 30.03 in1016.9 mb 0.08 in2.0 mm 0.48 in/hr12.2 mm/hr 0.71 in18.0 mm
07:10 AM 43.0°F6.1°C 43.0°F6.1°C 100% 5.7 mph NE9.2 kmh NE 12.0 mph19.3 kmh 30.00 in1015.9 mb 0.08 in2.0 mm 0.00 in/hr0.0 mm/hr 0.71 in18.0 mm
07:15 AM 43.0°F6.1°C 43.0°F6.1°C 100% 6.0 mph NNE9.7 kmh NNE 12.0 mph19.3 kmh 30.00 in1015.9 mb 0.08 in2.0 mm 0.00 in/hr0.0 mm/hr 0.71 in18.0 mm
07:21 AM 43.0°F6.1°C 43.0°F6.1°C 100% 9.6 mph NNE15.4 kmh NNE 13.0 mph20.9 kmh 30.00 in1015.9 mb 0.08 in2.0 mm 0.00 in/hr0.0 mm/hr 0.71 in18.0 mm
07:26 AM 43.0°F6.1°C 43.0°F6.1°C 100% 5.5 mph NE8.9 kmh NE 13.0 mph20.9 kmh 30.00 in1015.9 mb 0.13 in3.3 mm 0.60 in/hr15.2 mm/hr 0.75 in19.1 mm
07:31 AM 43.0°F6.1°C 43.0°F6.1°C 100% 4.7 mph NE7.6 kmh NE 11.2 mph18.0 kmh 30.00 in1015.9 mb 0.00 in0.0 mm 0.00 in/hr0.0 mm/hr 0.75 in19.1 mm
07:36 AM 43.0°F6.1°C 43.0°F6.1°C 100% 5.5 mph NE8.9 kmh NE 10.8 mph17.4 kmh 30.00 in1015.9 mb 0.00 in0.0 mm 0.00 in/hr0.0 mm/hr 0.75 in19.1 mm
07:41 AM 43.0°F6.1°C 43.0°F6.1°C 100% 4.6 mph NE7.4 kmh NE 9.8 mph15.8 kmh 30.00 in1015.9 mb 0.00 in0.0 mm 0.00 in/hr0.0 mm/hr 0.75 in19.1 mm
07:46 AM 43.0°F6.1°C 43.0°F6.1°C 100% 4.3 mph NE6.9 kmh NE 8.0 mph12.9 kmh 30.00 in1015.9 mb 0.00 in0.0 mm 0.00 in/hr0.0 mm/hr 0.75 in19.1 mm
07:52 AM 43.0°F6.1°C 43.0°F6.1°C 100% 6.0 mph NE9.7 kmh NE 8.6 mph13.8 kmh 30.00 in1015.9 mb 0.04 in1.0 mm 0.40 in/hr10.2 mm/hr 0.80 in20.3 mm
07:57 AM 43.0°F6.1°C 43.0°F6.1°C 100% 5.4 mph NE8.7 kmh NE 8.6 mph13.8 kmh 30.00 in1015.9 mb 0.04 in1.0 mm 0.00 in/hr0.0 mm/hr 0.80 in20.3 mm
08:02 AM 43.0°F6.1°C 43.0°F6.1°C 100% 6.1 mph NE9.8 kmh NE 8.0 mph12.9 kmh 30.00 in1015.9 mb 0.04 in1.0 mm 0.00 in/hr0.0 mm/hr 0.80 in20.3 mm
08:07 AM 43.0°F6.1°C 43.0°F6.1°C 100% 4.9 mph NE7.9 kmh NE 8.0 mph12.9 kmh 30.00 in1015.9 mb 0.04 in1.0 mm 0.00 in/hr0.0 mm/hr 0.80 in20.3 mm
08:14 AM 43.2°F6.2°C 43.2°F6.2°C 100% 8.4 mph NE13.5 kmh NE 11.2 mph18.0 kmh 29.97 in1014.9 mb 0.04 in1.0 mm 0.00 in/hr0.0 mm/hr 0.80 in20.3 mm
08:19 AM 43.2°F6.2°C 43.2°F6.2°C 100% 8.3 mph NE13.4 kmh NE 13.0 mph20.9 kmh 29.97 in1014.9 mb 0.08 in2.0 mm 0.48 in/hr12.2 mm/hr 0.83 in21.1 mm
08:24 AM 43.2°F6.2°C 43.2°F6.2°C 100% 5.3 mph NE8.5 kmh NE 13.0 mph20.9 kmh 29.97 in1014.9 mb 0.08 in2.0 mm 0.00 in/hr0.0 mm/hr 0.83 in21.1 mm
08:29 AM 43.2°F6.2°C 43.2°F6.2°C 100% 2.4 mph NNE3.9 kmh NNE 7.6 mph12.2 kmh 30.03 in1016.9 mb 0.00 in0.0 mm 0.00 in/hr0.0 mm/hr 0.83 in21.1 mm
08:34 AM 43.2°F6.2°C 43.2°F6.2°C 100% 4.7 mph NNE7.6 kmh NNE 7.6 mph12.2 kmh 30.03 in1016.9 mb 0.00 in0.0 mm 0.00 in/hr0.0 mm/hr 0.83 in21.1 mm
08:39 AM 43.2°F6.2°C 43.2°F6.2°C 100% 6.0 mph NNE9.7 kmh NNE 9.8 mph15.8 kmh 30.03 in1016.9 mb 0.00 in0.0 mm 0.00 in/hr0.0 mm/hr 0.83 in21.1 mm
08:44 AM 43.2°F6.2°C 43.2°F6.2°C 100% 5.2 mph NE8.4 kmh NE 9.8 mph15.8 kmh 30.00 in1015.9 mb 0.04 in1.0 mm 0.48 in/hr12.2 mm/hr 0.88 in22.4 mm
08:49 AM 43.2°F6.2°C 43.2°F6.2°C 100% 5.3 mph NNE8.5 kmh NNE 7.2 mph11.6 kmh 30.00 in1015.9 mb 0.04 in1.0 mm 0.00 in/hr0.0 mm/hr 0.88 in22.4 mm
08:54 AM 43.2°F6.2°C 43.2°F6.2°C 100% 4.1 mph NE6.6 kmh NE 11.6 mph18.7 kmh 30.00 in1015.9 mb 0.04 in1.0 mm 0.00 in/hr0.0 mm/hr 0.88 in22.4 mm
08:59 AM 43.2°F6.2°C 43.2°F6.2°C 100% 6.0 mph NE9.7 kmh NE 11.6 mph18.7 kmh 30.00 in1015.9 mb 0.04 in1.0 mm 0.00 in/hr0.0 mm/hr 0.88 in22.4 mm
09:04 AM 43.2°F6.2°C 43.2°F6.2°C 100% 4.0 mph NE6.4 kmh NE 9.8 mph15.8 kmh 30.00 in1015.9 mb 0.04 in1.0 mm 0.00 in/hr0.0 mm/hr 0.88 in22.4 mm
09:09 AM 43.2°F6.2°C 43.2°F6.2°C 100% 3.6 mph NE5.8 kmh NE 7.6 mph12.2 kmh 30.00 in1015.9 mb 0.04 in1.0 mm 0.00 in/hr0.0 mm/hr 0.88 in22.4 mm
09:14 AM 43.2°F6.2°C 43.2°F6.2°C 100% 4.8 mph E7.7 kmh E 6.2 mph10.0 kmh 30.00 in1015.9 mb 0.08 in2.0 mm 0.48 in/hr12.2 mm/hr 0.92 in23.4 mm
09:19 AM 43.3°F6.3°C 43.3°F6.3°C 100% 3.8 mph ENE6.1 kmh ENE 7.2 mph11.6 kmh 30.00 in1015.9 mb 0.08 in2.0 mm 0.00 in/hr0.0 mm/hr 0.92 in23.4 mm
09:24 AM 43.2°F6.2°C 43.2°F6.2°C 100% 5.1 mph NE8.2 kmh NE 8.6 mph13.8 kmh 30.00 in1015.9 mb 0.08 in2.0 mm 0.00 in/hr0.0 mm/hr 0.92 in23.4 mm
09:29 AM 43.3°F6.3°C 43.3°F6.3°C 100% 4.0 mph ENE6.4 kmh ENE 8.6 mph13.8 kmh 29.97 in1014.9 mb 0.00 in0.0 mm 0.00 in/hr0.0 mm/hr 0.92 in23.4 mm
09:34 AM 43.3°F6.3°C 43.3°F6.3°C 100% 2.6 mph NE4.2 kmh NE 9.8 mph15.8 kmh 29.97 in1014.9 mb 0.00 in0.0 mm 0.00 in/hr0.0 mm/hr 0.92 in23.4 mm
09:39 AM 43.3°F6.3°C 43.3°F6.3°C 100% 7.4 mph NE11.9 kmh NE 11.2 mph18.0 kmh 29.97 in1014.9 mb 0.00 in0.0 mm 0.00 in/hr0.0 mm/hr 0.92 in23.4 mm
09:45 AM 43.3°F6.3°C 43.3°F6.3°C 100% 7.7 mph NE12.4 kmh NE 11.2 mph18.0 kmh 29.94 in1013.9 mb 0.04 in1.0 mm 0.40 in/hr10.2 mm/hr 0.96 in24.4 mm
09:50 AM 43.3°F6.3°C 43.3°F6.3°C 100% 6.5 mph NNE10.5 kmh NNE 11.2 mph18.0 kmh 29.94 in1013.9 mb 0.04 in1.0 mm 0.00 in/hr0.0 mm/hr 0.96 in24.4 mm
09:55 AM 43.3°F6.3°C 43.3°F6.3°C 100% 7.0 mph NNE11.3 kmh NNE 9.8 mph15.8 kmh 29.94 in1013.9 mb 0.04 in1.0 mm 0.00 in/hr0.0 mm/hr 0.96 in24.4 mm
10:00 AM 43.3°F6.3°C 43.3°F6.3°C 100% 6.9 mph NNE11.1 kmh NNE 11.2 mph18.0 kmh 30.00 in1015.9 mb 0.04 in1.0 mm 0.00 in/hr0.0 mm/hr 0.96 in24.4 mm
10:05 AM 43.3°F6.3°C 43.3°F6.3°C 100% 7.1 mph NNE11.4 kmh NNE 11.2 mph18.0 kmh 30.00 in1015.9 mb 0.04 in1.0 mm 0.00 in/hr0.0 mm/hr 0.96 in24.4 mm
10:10 AM 43.3°F6.3°C 43.3°F6.3°C 100% 8.5 mph N13.7 kmh N 13.0 mph20.9 kmh 30.00 in1015.9 mb 0.04 in1.0 mm 0.00 in/hr0.0 mm/hr 0.96 in24.4 mm
10:15 AM 43.2°F6.2°C 43.2°F6.2°C 100% 8.5 mph N13.7 kmh N 13.0 mph20.9 kmh 30.00 in1015.9 mb 0.04 in1.0 mm 0.00 in/hr0.0 mm/hr 0.96 in24.4 mm
10:20 AM 43.2°F6.2°C 43.2°F6.2°C 100% 6.7 mph N10.8 kmh N 10.8 mph17.4 kmh 30.00 in1015.9 mb 0.04 in1.0 mm 0.00 in/hr0.0 mm/hr 0.96 in24.4 mm
10:25 AM 43.0°F6.1°C 43.0°F6.1°C 100% 7.0 mph N11.3 kmh N 10.8 mph17.4 kmh 30.00 in1015.9 mb 0.04 in1.0 mm 0.00 in/hr0.0 mm/hr 0.96 in24.4 mm
10:30 AM 43.0°F6.1°C 43.0°F6.1°C 100% 10.4 mph NNE16.7 kmh NNE 17.4 mph28.0 kmh 30.00 in1015.9 mb 0.04 in1.0 mm 0.00 in/hr0.0 mm/hr 1.00 in25.4 mm
10:36 AM 43.0°F6.1°C 43.0°F6.1°C 100% 7.3 mph N11.7 kmh N 17.4 mph28.0 kmh 30.00 in1015.9 mb 0.04 in1.0 mm 0.00 in/hr0.0 mm/hr 1.00 in25.4 mm
10:41 AM 42.8°F6.0°C 42.8°F6.0°C 100% 4.9 mph N7.9 kmh N 11.6 mph18.7 kmh 29.97 in1014.9 mb 0.08 in2.0 mm 0.48 in/hr12.2 mm/hr 1.04 in26.4 mm
10:46 AM 43.0°F6.1°C 43.0°F6.1°C 100% 5.3 mph N8.5 kmh N 11.6 mph18.7 kmh 29.97 in1014.9 mb 0.08 in2.0 mm 0.00 in/hr0.0 mm/hr 1.04 in26.4 mm
10:51 AM 43.0°F6.1°C 43.0°F6.1°C 100% 5.0 mph N8.0 kmh N 8.6 mph13.8 kmh 29.97 in1014.9 mb 0.08 in2.0 mm 0.00 in/hr0.0 mm/hr 1.04 in26.4 mm
10:57 AM 42.8°F6.0°C 42.8°F6.0°C 100% 5.2 mph NNE8.4 kmh NNE 8.6 mph13.8 kmh 29.97 in1014.9 mb 0.08 in2.0 mm 0.00 in/hr0.0 mm/hr 1.04 in26.4 mm
11:02 AM 42.8°F6.0°C 42.8°F6.0°C 100% 6.5 mph N10.5 kmh N 7.6 mph12.2 kmh 29.97 in1014.9 mb 0.12 in3.0 mm 0.04 in/hr1.0 mm/hr 1.08 in27.4 mm
11:07 AM 42.8°F6.0°C 42.8°F6.0°C 100% 4.3 mph NNW6.9 kmh NNW 7.6 mph12.2 kmh 29.97 in1014.9 mb 0.12 in3.0 mm 0.00 in/hr0.0 mm/hr 1.08 in27.4 mm
11:12 AM 42.8°F6.0°C 42.8°F6.0°C 100% 5.2 mph NW8.4 kmh NW 5.8 mph9.3 kmh 30.00 in1015.9 mb 0.12 in3.0 mm 0.00 in/hr0.0 mm/hr 1.08 in27.4 mm
11:17 AM 42.6°F5.9°C 42.6°F5.9°C 100% 6.2 mph N10.0 kmh N 12.0 mph19.3 kmh 30.00 in1015.9 mb 0.12 in3.0 mm 0.00 in/hr0.0 mm/hr 1.08 in27.4 mm
11:22 AM 42.8°F6.0°C 42.8°F6.0°C 100% 5.0 mph N8.0 kmh N 12.0 mph19.3 kmh 30.00 in1015.9 mb 0.12 in3.0 mm 0.00 in/hr0.0 mm/hr 1.08 in27.4 mm
11:28 AM 42.8°F6.0°C 42.8°F6.0°C 100% 7.2 mph NNE11.6 kmh NNE 8.6 mph13.8 kmh 30.00 in1015.9 mb 0.00 in0.0 mm 0.00 in/hr0.0 mm/hr 1.08 in27.4 mm
11:33 AM 42.8°F6.0°C 42.8°F6.0°C 100% 6.1 mph NNE9.8 kmh NNE 8.6 mph13.8 kmh 30.00 in1015.9 mb 0.00 in0.0 mm 0.00 in/hr0.0 mm/hr 1.08 in27.4 mm
11:38 AM 43.2°F6.2°C 43.2°F6.2°C 100% 5.2 mph NNE8.4 kmh NNE 8.0 mph12.9 kmh 30.00 in1015.9 mb 0.00 in0.0 mm 0.00 in/hr0.0 mm/hr 1.08 in27.4 mm
11:43 AM 43.3°F6.3°C 43.3°F6.3°C 100% 5.8 mph N9.3 kmh N 9.8 mph15.8 kmh 29.97 in1014.9 mb 0.00 in0.0 mm 0.00 in/hr0.0 mm/hr 1.08 in27.4 mm
11:48 AM 43.3°F6.3°C 43.3°F6.3°C 100% 7.1 mph N11.4 kmh N 11.2 mph18.0 kmh 29.97 in1014.9 mb 0.00 in0.0 mm 0.00 in/hr0.0 mm/hr 1.08 in27.4 mm
11:53 AM 43.5°F6.4°C 43.5°F6.4°C 100% 4.9 mph N7.9 kmh N 11.2 mph18.0 kmh 29.97 in1014.9 mb 0.00 in0.0 mm 0.00 in/hr0.0 mm/hr 1.08 in27.4 mm
11:58 AM 43.2°F6.2°C 43.2°F6.2°C 100% 5.9 mph NNW9.5 kmh NNW 11.2 mph18.0 kmh 29.97 in1014.9 mb 0.00 in0.0 mm 0.00 in/hr0.0 mm/hr 1.08 in27.4 mm
12:03 PM 42.8°F6.0°C 42.8°F6.0°C 100% 5.6 mph NNE9.0 kmh NNE 8.0 mph12.9 kmh 29.97 in1014.9 mb 0.00 in0.0 mm 0.00 in/hr0.0 mm/hr 1.08 in27.4 mm
12:08 PM 42.8°F6.0°C 42.8°F6.0°C 100% 7.5 mph N12.1 kmh N 10.8 mph17.4 kmh 29.97 in1014.9 mb 0.00 in0.0 mm 0.00 in/hr0.0 mm/hr 1.08 in27.4 mm
12:13 PM 42.8°F6.0°C 42.8°F6.0°C 100% 5.7 mph NNE9.2 kmh NNE 10.8 mph17.4 kmh 29.97 in1014.9 mb 0.00 in0.0 mm 0.00 in/hr0.0 mm/hr 1.08 in27.4 mm
12:18 PM 43.2°F6.2°C 43.2°F6.2°C 100% 6.6 mph 10.6 kmh 11.6 mph18.7 kmh 29.97 in1014.9 mb 0.00 in0.0 mm 0.00 in/hr0.0 mm/hr 1.08 in27.4 mm
12:23 PM 43.5°F6.4°C 43.5°F6.4°C 100% 5.2 mph 8.4 kmh 11.6 mph18.7 kmh 29.97 in1014.9 mb 0.00 in0.0 mm 0.00 in/hr0.0 mm/hr 1.08 in27.4 mm
12:28 PM 43.7°F6.5°C 43.7°F6.5°C 100% 5.7 mph N9.2 kmh N 8.0 mph12.9 kmh 30.00 in1015.9 mb 0.00 in0.0 mm 0.00 in/hr0.0 mm/hr 1.08 in27.4 mm
12:33 PM 43.7°F6.5°C 43.7°F6.5°C 100% 4.9 mph NNW7.9 kmh NNW 7.2 mph11.6 kmh 30.00 in1015.9 mb 0.00 in0.0 mm 0.00 in/hr0.0 mm/hr 1.08 in27.4 mm
12:38 PM 43.7°F6.5°C 43.7°F6.5°C 100% 5.1 mph NNE8.2 kmh NNE 9.8 mph15.8 kmh 30.00 in1015.9 mb 0.00 in0.0 mm 0.00 in/hr0.0 mm/hr 1.08 in27.4 mm
12:43 PM 44.8°F7.1°C 44.5°F6.9°C 99% 7.4 mph NNE11.9 kmh NNE 9.8 mph15.8 kmh 30.00 in1015.9 mb 0.00 in0.0 mm 0.00 in/hr0.0 mm/hr 1.08 in27.4 mm
12:48 PM 45.9°F7.7°C 44.1°F6.7°C 94% 7.0 mph NNE11.3 kmh NNE 10.8 mph17.4 kmh 30.00 in1015.9 mb 0.00 in0.0 mm 0.00 in/hr0.0 mm/hr 1.08 in27.4 mm
12:53 PM 46.4°F8.0°C 44.3°F6.8°C 92% 5.8 mph N9.3 kmh N 10.8 mph17.4 kmh 30.00 in1015.9 mb 0.00 in0.0 mm 0.00 in/hr0.0 mm/hr 1.08 in27.4 mm
12:58 PM 46.8°F8.2°C 44.7°F7.1°C 92% 5.5 mph NNE8.9 kmh NNE 8.6 mph13.8 kmh 30.00 in1015.9 mb 0.00 in0.0 mm 0.00 in/hr0.0 mm/hr 1.08 in27.4 mm
01:03 PM 47.1°F8.4°C 43.1°F6.2°C 86% 7.6 mph NNE12.2 kmh NNE 8.6 mph13.8 kmh 30.00 in1015.9 mb 0.00 in0.0 mm 0.00 in/hr0.0 mm/hr 1.08 in27.4 mm
01:08 PM 47.1°F8.4°C 43.1°F6.2°C 86% 6.5 mph NNE10.5 kmh NNE 11.6 mph18.7 kmh 30.00 in1015.9 mb 0.00 in0.0 mm 0.00 in/hr0.0 mm/hr 1.08 in27.4 mm
01:13 PM 47.8°F8.8°C 44.1°F6.7°C 87% 5.6 mph NNE9.0 kmh NNE 11.6 mph18.7 kmh 30.00 in1015.9 mb 0.00 in0.0 mm 0.00 in/hr0.0 mm/hr 1.08 in27.4 mm
01:19 PM 47.1°F8.4°C 44.0°F6.7°C 89% 5.8 mph N9.3 kmh N 9.0 mph14.5 kmh 30.00 in1015.9 mb 0.00 in0.0 mm 0.00 in/hr0.0 mm/hr 1.08 in27.4 mm
01:24 PM 48.0°F8.9°C 44.9°F7.2°C 89% 5.2 mph NE8.4 kmh NE 7.2 mph11.6 kmh 30.00 in1015.9 mb 0.00 in0.0 mm 0.00 in/hr0.0 mm/hr 1.08 in27.4 mm
01:29 PM 47.3°F8.5°C 43.6°F6.4°C 87% 4.9 mph NW7.9 kmh NW 7.2 mph11.6 kmh 30.00 in1015.9 mb 0.00 in0.0 mm 0.00 in/hr0.0 mm/hr 1.08 in27.4 mm
01:34 PM 47.1°F8.4°C 43.4°F6.3°C 87% 5.1 mph WNW8.2 kmh WNW 6.8 mph10.9 kmh 30.00 in1015.9 mb 0.00 in0.0 mm 0.00 in/hr0.0 mm/hr 1.08 in27.4 mm
01:40 PM 47.8°F8.8°C 44.1°F6.7°C 87% 6.3 mph NNE10.1 kmh NNE 7.6 mph12.2 kmh 30.00 in1015.9 mb 0.00 in0.0 mm 0.00 in/hr0.0 mm/hr 1.08 in27.4 mm
01:45 PM 47.8°F8.8°C 44.4°F6.9°C 88% 4.7 mph NW7.6 kmh NW 8.0 mph12.9 kmh 30.00 in1015.9 mb 0.00 in0.0 mm 0.00 in/hr0.0 mm/hr 1.08 in27.4 mm
01:50 PM 47.3°F8.5°C 43.6°F6.4°C 87% 3.8 mph NNW6.1 kmh NNW 8.0 mph12.9 kmh 30.00 in1015.9 mb 0.00 in0.0 mm 0.00 in/hr0.0 mm/hr 1.08 in27.4 mm
01:55 PM 47.1°F8.4°C 43.1°F6.2°C 86% 5.9 mph N9.5 kmh N 8.0 mph12.9 kmh 30.00 in1015.9 mb 0.00 in0.0 mm 0.00 in/hr0.0 mm/hr 1.08 in27.4 mm
02:01 PM 46.8°F8.2°C 43.1°F6.2°C 87% 4.5 mph NNE7.2 kmh NNE 8.0 mph12.9 kmh 30.00 in1015.9 mb 0.00 in0.0 mm 0.00 in/hr0.0 mm/hr 1.08 in27.4 mm
02:06 PM 46.8°F8.2°C 43.1°F6.2°C 87% 5.0 mph N8.0 kmh N 6.8 mph10.9 kmh 30.00 in1015.9 mb 0.00 in0.0 mm 0.00 in/hr0.0 mm/hr 1.08 in27.4 mm
02:11 PM 46.6°F8.1°C 43.2°F6.2°C 88% 4.6 mph N7.4 kmh N 8.0 mph12.9 kmh 30.00 in1015.9 mb 0.00 in0.0 mm 0.00 in/hr0.0 mm/hr 1.08 in27.4 mm
02:16 PM 46.6°F8.1°C 43.2°F6.2°C 88% 3.7 mph N6.0 kmh N 8.0 mph12.9 kmh 30.00 in1015.9 mb 0.00 in0.0 mm 0.00 in/hr0.0 mm/hr 1.08 in27.4 mm
02:21 PM 47.1°F8.4°C 43.4°F6.3°C 87% 2.9 mph NNW4.7 kmh NNW 8.6 mph13.8 kmh 30.00 in1015.9 mb 0.00 in0.0 mm 0.00 in/hr0.0 mm/hr 1.08 in27.4 mm
02:26 PM 47.5°F8.6°C 43.8°F6.6°C 87% 4.8 mph NW7.7 kmh NW 8.6 mph13.8 kmh 30.00 in1015.9 mb 0.00 in0.0 mm 0.00 in/hr0.0 mm/hr 1.08 in27.4 mm
02:31 PM 47.3°F8.5°C 43.2°F6.2°C 86% 4.1 mph WNW6.6 kmh WNW 5.4 mph8.7 kmh 30.00 in1015.9 mb 0.00 in0.0 mm 0.00 in/hr0.0 mm/hr 1.08 in27.4 mm
02:36 PM 47.1°F8.4°C 43.1°F6.2°C 86% 4.3 mph NW6.9 kmh NW 6.2 mph10.0 kmh 30.00 in1015.9 mb 0.00 in0.0 mm 0.00 in/hr0.0 mm/hr 1.08 in27.4 mm
02:41 PM 47.1°F8.4°C 43.4°F6.3°C 87% 2.8 mph N4.5 kmh N 6.2 mph10.0 kmh 30.00 in1015.9 mb 0.00 in0.0 mm 0.00 in/hr0.0 mm/hr 1.08 in27.4 mm
02:47 PM 47.1°F8.4°C 43.7°F6.5°C 88% 4.2 mph NW6.8 kmh NW 5.8 mph9.3 kmh 30.00 in1015.9 mb 0.00 in0.0 mm 0.00 in/hr0.0 mm/hr 1.08 in27.4 mm
02:52 PM 47.1°F8.4°C 43.4°F6.3°C 87% 2.6 mph NNE4.2 kmh NNE 5.8 mph9.3 kmh 30.00 in1015.9 mb 0.00 in0.0 mm 0.00 in/hr0.0 mm/hr 1.08 in27.4 mm
02:57 PM 47.8°F8.8°C 43.7°F6.5°C 86% 5.1 mph NW8.2 kmh NW 7.2 mph11.6 kmh 30.03 in1016.9 mb 0.00 in0.0 mm 0.00 in/hr0.0 mm/hr 1.08 in27.4 mm
03:02 PM 47.7°F8.7°C 43.0°F6.1°C 84% 2.9 mph N4.7 kmh N 7.2 mph11.6 kmh 30.03 in1016.9 mb 0.00 in0.0 mm 0.00 in/hr0.0 mm/hr 1.08 in27.4 mm
03:07 PM 47.7°F8.7°C 43.0°F6.1°C 84% 4.6 mph NNE7.4 kmh NNE 6.2 mph10.0 kmh 30.03 in1016.9 mb 0.00 in0.0 mm 0.00 in/hr0.0 mm/hr 1.08 in27.4 mm
03:12 PM 47.5°F8.6°C 42.4°F5.8°C 83% 4.2 mph NNE6.8 kmh NNE 7.6 mph12.2 kmh 30.00 in1015.9 mb 0.00 in0.0 mm 0.00 in/hr0.0 mm/hr 1.08 in27.4 mm
03:17 PM 47.1°F8.4°C 42.1°F5.6°C 83% 2.8 mph NE4.5 kmh NE 7.6 mph12.2 kmh 30.00 in1015.9 mb 0.00 in0.0 mm 0.00 in/hr0.0 mm/hr 1.08 in27.4 mm
03:23 PM 47.3°F8.5°C 42.6°F5.9°C 84% Calm Calm 5.8 mph9.3 kmh 30.00 in1015.9 mb 0.00 in0.0 mm 0.00 in/hr0.0 mm/hr 1.08 in27.4 mm
03:28 PM 47.3°F8.5°C 42.9°F6.1°C 85% 2.5 mph NE4.0 kmh NE 3.2 mph5.1 kmh 30.00 in1015.9 mb 0.00 in0.0 mm 0.00 in/hr0.0 mm/hr 1.08 in27.4 mm
03:33 PM 47.5°F8.6°C 42.4°F5.8°C 83% 2.8 mph NNE4.5 kmh NNE 8.0 mph12.9 kmh 30.00 in1015.9 mb 0.00 in0.0 mm 0.00 in/hr0.0 mm/hr 1.08 in27.4 mm
03:38 PM 47.5°F8.6°C 42.4°F5.8°C 83% 3.1 mph NNE5.0 kmh NNE 8.0 mph12.9 kmh 30.00 in1015.9 mb 0.00 in0.0 mm 0.00 in/hr0.0 mm/hr 1.08 in27.4 mm
03:43 PM 47.5°F8.6°C 42.8°F6.0°C 84% 2.1 mph NW3.4 kmh NW 6.8 mph10.9 kmh 30.00 in1015.9 mb 0.00 in0.0 mm 0.00 in/hr0.0 mm/hr 1.08 in27.4 mm
03:48 PM 47.5°F8.6°C 42.8°F6.0°C 84% Calm Calm 4.4 mph7.1 kmh 30.00 in1015.9 mb 0.00 in0.0 mm 0.00 in/hr0.0 mm/hr 1.08 in27.4 mm
03:53 PM 47.3°F8.5°C 42.6°F5.9°C 84% 2.0 mph N3.2 kmh N 3.2 mph5.1 kmh 30.00 in1015.9 mb 0.00 in0.0 mm 0.00 in/hr0.0 mm/hr 1.08 in27.4 mm
03:58 PM 47.3°F8.5°C 42.6°F5.9°C 84% 3.0 mph NNE4.8 kmh NNE 4.0 mph6.4 kmh 30.03 in1016.9 mb 0.00 in0.0 mm 0.00 in/hr0.0 mm/hr 1.08 in27.4 mm
04:03 PM 47.1°F8.4°C 42.4°F5.8°C 84% Calm Calm 4.0 mph6.4 kmh 30.03 in1016.9 mb 0.00 in0.0 mm 0.00 in/hr0.0 mm/hr 1.08 in27.4 mm
04:08 PM 46.8°F8.2°C 42.4°F5.8°C 85% Calm Calm -- 30.03 in1016.9 mb 0.00 in0.0 mm 0.00 in/hr0.0 mm/hr 1.08 in27.4 mm
04:13 PM 46.8°F8.2°C 42.4°F5.8°C 85% Calm Calm 1.8 mph2.9 kmh 30.03 in1016.9 mb 0.00 in0.0 mm 0.00 in/hr0.0 mm/hr 1.08 in27.4 mm
04:18 PM 46.4°F8.0°C 42.0°F5.6°C 85% Calm Calm 1.8 mph2.9 kmh 30.03 in1016.9 mb 0.00 in0.0 mm 0.00 in/hr0.0 mm/hr 1.08 in27.4 mm
04:23 PM 46.2°F7.9°C 42.2°F5.7°C 86% Calm Calm -- 30.03 in1016.9 mb 0.00 in0.0 mm 0.00 in/hr0.0 mm/hr 1.08 in27.4 mm
04:28 PM 46.2°F7.9°C 42.2°F5.7°C 86% Calm Calm -- 30.00 in1015.9 mb 0.00 in0.0 mm 0.00 in/hr0.0 mm/hr 1.08 in27.4 mm
04:35 PM 46.0°F7.8°C 42.0°F5.6°C 86% Calm Calm -- 30.00 in1015.9 mb 0.00 in0.0 mm 0.00 in/hr0.0 mm/hr 1.08 in27.4 mm
04:40 PM 45.9°F7.7°C 42.2°F5.7°C 87% Calm Calm -- 30.00 in1015.9 mb 0.00 in0.0 mm 0.00 in/hr0.0 mm/hr 1.08 in27.4 mm
04:45 PM 45.7°F7.6°C 42.0°F5.6°C 87% Calm Calm -- 30.00 in1015.9 mb 0.00 in0.0 mm 0.00 in/hr0.0 mm/hr 1.08 in27.4 mm
04:50 PM 45.5°F7.5°C 41.8°F5.4°C 87% Calm Calm -- 30.00 in1015.9 mb 0.00 in0.0 mm 0.00 in/hr0.0 mm/hr 1.08 in27.4 mm
04:55 PM 45.5°F7.5°C 42.1°F5.6°C 88% Calm Calm -- 30.03 in1016.9 mb 0.00 in0.0 mm 0.00 in/hr0.0 mm/hr 1.08 in27.4 mm
05:00 PM 45.1°F7.3°C 41.7°F5.4°C 88% Calm Calm -- 30.03 in1016.9 mb 0.00 in0.0 mm 0.00 in/hr0.0 mm/hr 1.08 in27.4 mm
05:06 PM 44.8°F7.1°C 41.4°F5.2°C 88% Calm Calm -- 30.03 in1016.9 mb 0.00 in0.0 mm 0.00 in/hr0.0 mm/hr 1.08 in27.4 mm
05:11 PM 44.6°F7.0°C 41.6°F5.3°C 89% Calm Calm -- 30.03 in1016.9 mb 0.00 in0.0 mm 0.00 in/hr0.0 mm/hr 1.08 in27.4 mm
05:16 PM 44.1°F6.7°C 41.4°F5.2°C 90% Calm Calm -- 30.03 in1016.9 mb 0.00 in0.0 mm 0.00 in/hr0.0 mm/hr 1.08 in27.4 mm
05:21 PM 43.7°F6.5°C 41.3°F5.2°C 91% Calm Calm -- 30.03 in1016.9 mb 0.00 in0.0 mm 0.00 in/hr0.0 mm/hr 1.08 in27.4 mm
05:26 PM 43.3°F6.3°C 41.2°F5.1°C 92% Calm Calm -- 30.03 in1016.9 mb 0.00 in0.0 mm 0.00 in/hr0.0 mm/hr 1.08 in27.4 mm
05:31 PM 43.0°F6.1°C 40.9°F4.9°C 92% Calm Calm -- 30.03 in1016.9 mb 0.00 in0.0 mm 0.00 in/hr0.0 mm/hr 1.08 in27.4 mm
05:36 PM 43.0°F6.1°C 41.2°F5.1°C 94% Calm Calm -- 30.03 in1016.9 mb 0.00 in0.0 mm 0.00 in/hr0.0 mm/hr 1.08 in27.4 mm
05:41 PM 42.6°F5.9°C 41.1°F5.1°C 95% Calm Calm -- 30.03 in1016.9 mb 0.00 in0.0 mm 0.00 in/hr0.0 mm/hr 1.08 in27.4 mm
05:46 PM 42.3°F5.7°C 41.1°F5.1°C 96% Calm Calm -- 30.03 in1016.9 mb 0.00 in0.0 mm 0.00 in/hr0.0 mm/hr 1.08 in27.4 mm
05:51 PM 41.9°F5.5°C 41.0°F5.0°C 97% Calm Calm -- 30.03 in1016.9 mb 0.00 in0.0 mm 0.00 in/hr0.0 mm/hr 1.08 in27.4 mm
05:57 PM 41.7°F5.4°C 40.8°F4.9°C 97% Calm Calm -- 30.06 in1017.9 mb 0.00 in0.0 mm 0.00 in/hr0.0 mm/hr 1.08 in27.4 mm
06:02 PM 41.5°F5.3°C 40.9°F4.9°C 98% Calm Calm -- 30.06 in1017.9 mb 0.00 in0.0 mm 0.00 in/hr0.0 mm/hr 1.08 in27.4 mm
06:08 PM 41.2°F5.1°C 40.9°F4.9°C 99% Calm Calm -- 30.06 in1017.9 mb 0.00 in0.0 mm 0.00 in/hr0.0 mm/hr 1.08 in27.4 mm
06:13 PM 40.6°F4.8°C 40.6°F4.8°C 100% Calm Calm -- 30.06 in1017.9 mb 0.00 in0.0 mm 0.00 in/hr0.0 mm/hr 1.08 in27.4 mm
06:19 PM 40.3°F4.6°C 40.3°F4.6°C 100% Calm Calm -- 30.06 in1017.9 mb 0.00 in0.0 mm 0.00 in/hr0.0 mm/hr 1.08 in27.4 mm
06:24 PM 40.3°F4.6°C 40.3°F4.6°C 100% Calm Calm -- 30.06 in1017.9 mb 0.00 in0.0 mm 0.00 in/hr0.0 mm/hr 1.08 in27.4 mm
06:29 PM 39.9°F4.4°C 39.9°F4.4°C 100% Calm Calm -- 30.06 in1017.9 mb 0.00 in0.0 mm 0.00 in/hr0.0 mm/hr 1.08 in27.4 mm
06:34 PM 39.7°F4.3°C 39.7°F4.3°C 100% Calm Calm -- 30.06 in1017.9 mb 0.00 in0.0 mm 0.00 in/hr0.0 mm/hr 1.08 in27.4 mm
06:39 PM 39.6°F4.2°C 39.6°F4.2°C 100% Calm Calm -- 30.06 in1017.9 mb 0.00 in0.0 mm 0.00 in/hr0.0 mm/hr 1.08 in27.4 mm
06:44 PM 39.4°F4.1°C 39.4°F4.1°C 100% Calm Calm -- 30.03 in1016.9 mb 0.00 in0.0 mm 0.00 in/hr0.0 mm/hr 1.08 in27.4 mm
06:49 PM 39.4°F4.1°C 39.4°F4.1°C 100% Calm Calm -- 30.03 in1016.9 mb 0.00 in0.0 mm 0.00 in/hr0.0 mm/hr 1.08 in27.4 mm
06:54 PM 39.4°F4.1°C 39.4°F4.1°C 100% Calm Calm -- 30.03 in1016.9 mb 0.00 in0.0 mm 0.00 in/hr0.0 mm/hr 1.08 in27.4 mm
07:00 PM 39.0°F3.9°C 39.0°F3.9°C 100% Calm Calm -- 30.03 in1016.9 mb 0.00 in0.0 mm 0.00 in/hr0.0 mm/hr 1.08 in27.4 mm
07:05 PM 38.8°F3.8°C 38.8°F3.8°C 100% Calm Calm -- 30.03 in1016.9 mb 0.00 in0.0 mm 0.00 in/hr0.0 mm/hr 1.08 in27.4 mm
07:10 PM 38.8°F3.8°C 38.8°F3.8°C 100% Calm Calm -- 30.03 in1016.9 mb 0.00 in0.0 mm 0.00 in/hr0.0 mm/hr 1.08 in27.4 mm
07:15 PM 38.8°F3.8°C 38.8°F3.8°C 100% Calm Calm -- 30.03 in1016.9 mb 0.00 in0.0 mm 0.00 in/hr0.0 mm/hr 1.08 in27.4 mm
07:20 PM 38.7°F3.7°C 38.7°F3.7°C 100% Calm Calm -- 30.03 in1016.9 mb 0.00 in0.0 mm 0.00 in/hr0.0 mm/hr 1.08 in27.4 mm
07:25 PM 38.7°F3.7°C 38.7°F3.7°C 100% Calm Calm -- 30.06 in1017.9 mb 0.00 in0.0 mm 0.00 in/hr0.0 mm/hr 1.08 in27.4 mm
07:30 PM 38.7°F3.7°C 38.7°F3.7°C 100% Calm Calm -- 30.06 in1017.9 mb 0.00 in0.0 mm 0.00 in/hr0.0 mm/hr 1.08 in27.4 mm
07:35 PM 38.8°F3.8°C 38.8°F3.8°C 100% Calm Calm -- 30.06 in1017.9 mb 0.00 in0.0 mm 0.00 in/hr0.0 mm/hr 1.08 in27.4 mm
07:42 PM 38.8°F3.8°C 38.8°F3.8°C 100% Calm Calm -- 30.06 in1017.9 mb 0.00 in0.0 mm 0.00 in/hr0.0 mm/hr 1.08 in27.4 mm
07:47 PM 38.8°F3.8°C 38.8°F3.8°C 100% Calm Calm -- 30.06 in1017.9 mb 0.00 in0.0 mm 0.00 in/hr0.0 mm/hr 1.08 in27.4 mm
07:52 PM 38.8°F3.8°C 38.8°F3.8°C 100% 3.8 mph ESE6.1 kmh ESE 4.4 mph7.1 kmh 30.06 in1017.9 mb 0.00 in0.0 mm 0.00 in/hr0.0 mm/hr 1.08 in27.4 mm
07:57 PM 38.8°F3.8°C 38.8°F3.8°C 100% 2.0 mph ESE3.2 kmh ESE 5.0 mph8.0 kmh 30.03 in1016.9 mb 0.00 in0.0 mm 0.00 in/hr0.0 mm/hr 1.08 in27.4 mm
08:02 PM 38.8°F3.8°C 38.8°F3.8°C 100% Calm Calm 5.0 mph8.0 kmh 30.03 in1016.9 mb 0.00 in0.0 mm 0.00 in/hr0.0 mm/hr 1.08 in27.4 mm
08:07 PM 38.7°F3.7°C 38.7°F3.7°C 100% Calm Calm -- 30.03 in1016.9 mb 0.00 in0.0 mm 0.00 in/hr0.0 mm/hr 1.08 in27.4 mm
08:12 PM 38.7°F3.7°C 38.7°F3.7°C 100% Calm Calm -- 30.03 in1016.9 mb 0.00 in0.0 mm 0.00 in/hr0.0 mm/hr 1.08 in27.4 mm
08:17 PM 38.8°F3.8°C 38.8°F3.8°C 100% Calm Calm -- 30.03 in1016.9 mb 0.00 in0.0 mm 0.00 in/hr0.0 mm/hr 1.08 in27.4 mm
08:23 PM 39.2°F4.0°C 39.2°F4.0°C 100% Calm Calm -- 30.03 in1016.9 mb 0.00 in0.0 mm 0.00 in/hr0.0 mm/hr 1.08 in27.4 mm
08:28 PM 39.4°F4.1°C 39.4°F4.1°C 100% Calm Calm -- 30.03 in1016.9 mb 0.00 in0.0 mm 0.00 in/hr0.0 mm/hr 1.08 in27.4 mm
08:33 PM 39.4°F4.1°C 39.4°F4.1°C 100% 2.0 mph ESE3.2 kmh ESE 2.2 mph3.5 kmh 30.03 in1016.9 mb 0.00 in0.0 mm 0.00 in/hr0.0 mm/hr 1.08 in27.4 mm
08:38 PM 39.4°F4.1°C 39.4°F4.1°C 100% Calm Calm 2.2 mph3.5 kmh 30.03 in1016.9 mb 0.00 in0.0 mm 0.00 in/hr0.0 mm/hr 1.08 in27.4 mm
08:43 PM 39.6°F4.2°C 39.6°F4.2°C 100% Calm Calm 1.8 mph2.9 kmh 30.03 in1016.9 mb 0.00 in0.0 mm 0.00 in/hr0.0 mm/hr 1.08 in27.4 mm
08:48 PM 39.7°F4.3°C 39.7°F4.3°C 100% Calm Calm -- 30.03 in1016.9 mb 0.00 in0.0 mm 0.00 in/hr0.0 mm/hr 1.08 in27.4 mm
08:53 PM 39.9°F4.4°C 39.9°F4.4°C 100% Calm Calm -- 30.03 in1016.9 mb 0.00 in0.0 mm 0.00 in/hr0.0 mm/hr 1.08 in27.4 mm
08:58 PM 39.9°F4.4°C 39.9°F4.4°C 100% Calm Calm -- 30.03 in1016.9 mb 0.00 in0.0 mm 0.00 in/hr0.0 mm/hr 1.08 in27.4 mm
09:04 PM 39.9°F4.4°C 39.9°F4.4°C 100% Calm Calm -- 30.03 in1016.9 mb 0.00 in0.0 mm 0.00 in/hr0.0 mm/hr 1.08 in27.4 mm
09:09 PM 40.1°F4.5°C 40.1°F4.5°C 100% Calm Calm -- 30.03 in1016.9 mb 0.00 in0.0 mm 0.00 in/hr0.0 mm/hr 1.08 in27.4 mm
09:14 PM 40.3°F4.6°C 40.3°F4.6°C 100% Calm Calm -- 30.03 in1016.9 mb 0.00 in0.0 mm 0.00 in/hr0.0 mm/hr 1.08 in27.4 mm
09:19 PM 40.6°F4.8°C 40.6°F4.8°C 100% Calm Calm -- 30.03 in1016.9 mb 0.00 in0.0 mm 0.00 in/hr0.0 mm/hr 1.08 in27.4 mm
09:25 PM 40.8°F4.9°C 40.8°F4.9°C 100% Calm Calm -- 30.03 in1016.9 mb 0.00 in0.0 mm 0.00 in/hr0.0 mm/hr 1.08 in27.4 mm
09:30 PM 40.8°F4.9°C 40.8°F4.9°C 100% Calm Calm -- 30.03 in1016.9 mb 0.00 in0.0 mm 0.00 in/hr0.0 mm/hr 1.08 in27.4 mm
09:35 PM 40.8°F4.9°C 40.8°F4.9°C 100% Calm Calm -- 30.03 in1016.9 mb 0.00 in0.0 mm 0.00 in/hr0.0 mm/hr 1.08 in27.4 mm
09:40 PM 40.8°F4.9°C 40.8°F4.9°C 100% Calm Calm -- 30.03 in1016.9 mb 0.00 in0.0 mm 0.00 in/hr0.0 mm/hr 1.08 in27.4 mm
09:45 PM 40.8°F4.9°C 40.8°F4.9°C 100% Calm Calm -- 30.03 in1016.9 mb 0.00 in0.0 mm 0.00 in/hr0.0 mm/hr 1.08 in27.4 mm
09:50 PM 40.8°F4.9°C 40.8°F4.9°C 100% Calm Calm -- 30.03 in1016.9 mb 0.00 in0.0 mm 0.00 in/hr0.0 mm/hr 1.08 in27.4 mm
09:55 PM 40.8°F4.9°C 40.8°F4.9°C 100% Calm Calm -- 30.03 in1016.9 mb 0.00 in0.0 mm 0.00 in/hr0.0 mm/hr 1.08 in27.4 mm
10:00 PM 40.6°F4.8°C 40.6°F4.8°C 100% Calm Calm -- 30.03 in1016.9 mb 0.00 in0.0 mm 0.00 in/hr0.0 mm/hr 1.08 in27.4 mm
10:05 PM 40.8°F4.9°C 40.8°F4.9°C 100% Calm Calm -- 30.03 in1016.9 mb 0.00 in0.0 mm 0.00 in/hr0.0 mm/hr 1.08 in27.4 mm
10:10 PM 40.8°F4.9°C 40.8°F4.9°C 100% Calm Calm -- 30.03 in1016.9 mb 0.00 in0.0 mm 0.00 in/hr0.0 mm/hr 1.08 in27.4 mm
10:15 PM 40.6°F4.8°C 40.6°F4.8°C 100% Calm Calm -- 30.03 in1016.9 mb 0.00 in0.0 mm 0.00 in/hr0.0 mm/hr 1.08 in27.4 mm
10:20 PM 40.6°F4.8°C 40.6°F4.8°C 100% Calm Calm -- 30.03 in1016.9 mb 0.00 in0.0 mm 0.00 in/hr0.0 mm/hr 1.08 in27.4 mm
10:25 PM 40.6°F4.8°C 40.6°F4.8°C 100% 4.0 mph ESE6.4 kmh ESE 4.0 mph6.4 kmh 30.03 in1016.9 mb 0.00 in0.0 mm 0.00 in/hr0.0 mm/hr 1.08 in27.4 mm
10:30 PM 40.8°F4.9°C 40.8°F4.9°C 100% 5.3 mph ESE8.5 kmh ESE 6.8 mph10.9 kmh 30.03 in1016.9 mb 0.00 in0.0 mm 0.00 in/hr0.0 mm/hr 1.08 in27.4 mm
10:35 PM 41.2°F5.1°C 41.2°F5.1°C 100% 4.3 mph ESE6.9 kmh ESE 6.8 mph10.9 kmh 30.03 in1016.9 mb 0.00 in0.0 mm 0.00 in/hr0.0 mm/hr 1.08 in27.4 mm
10:40 PM 41.4°F5.2°C 41.4°F5.2°C 100% Calm Calm 6.8 mph10.9 kmh 30.03 in1016.9 mb 0.00 in0.0 mm 0.00 in/hr0.0 mm/hr 1.08 in27.4 mm
10:45 PM 41.2°F5.1°C 41.2°F5.1°C 100% Calm Calm 2.2 mph3.5 kmh 30.03 in1016.9 mb 0.00 in0.0 mm 0.00 in/hr0.0 mm/hr 1.08 in27.4 mm
10:50 PM 41.2°F5.1°C 41.2°F5.1°C 100% 5.3 mph ESE8.5 kmh ESE 5.8 mph9.3 kmh 30.03 in1016.9 mb 0.00 in0.0 mm 0.00 in/hr0.0 mm/hr 1.08 in27.4 mm
10:55 PM 41.2°F5.1°C 41.2°F5.1°C 100% 3.9 mph ESE6.3 kmh ESE 5.8 mph9.3 kmh 30.03 in1016.9 mb 0.00 in0.0 mm 0.00 in/hr0.0 mm/hr 1.08 in27.4 mm
11:00 PM 41.2°F5.1°C 41.2°F5.1°C 100% 2.8 mph ESE4.5 kmh ESE 5.8 mph9.3 kmh 30.03 in1016.9 mb 0.00 in0.0 mm 0.00 in/hr0.0 mm/hr 1.08 in27.4 mm
11:06 PM 41.2°F5.1°C 41.2°F5.1°C 100% 5.1 mph ESE8.2 kmh ESE 6.2 mph10.0 kmh 30.03 in1016.9 mb 0.00 in0.0 mm 0.00 in/hr0.0 mm/hr 1.08 in27.4 mm
11:11 PM 41.2°F5.1°C 41.2°F5.1°C 100% 3.2 mph ESE5.1 kmh ESE 6.8 mph10.9 kmh 30.03 in1016.9 mb 0.00 in0.0 mm 0.00 in/hr0.0 mm/hr 1.08 in27.4 mm
11:16 PM 41.2°F5.1°C 41.2°F5.1°C 100% 3.6 mph ESE5.8 kmh ESE 6.8 mph10.9 kmh 30.03 in1016.9 mb 0.00 in0.0 mm 0.00 in/hr0.0 mm/hr 1.08 in27.4 mm
11:21 PM 41.2°F5.1°C 41.2°F5.1°C 100% 2.2 mph ESE3.5 kmh ESE 5.4 mph8.7 kmh 30.03 in1016.9 mb 0.00 in0.0 mm 0.00 in/hr0.0 mm/hr 1.08 in27.4 mm
11:26 PM 41.2°F5.1°C 41.2°F5.1°C 100% 4.5 mph ESE7.2 kmh ESE 5.8 mph9.3 kmh 30.03 in1016.9 mb 0.00 in0.0 mm 0.00 in/hr0.0 mm/hr 1.08 in27.4 mm
11:31 PM 40.6°F4.8°C 40.6°F4.8°C 100% 3.7 mph ESE6.0 kmh ESE 5.8 mph9.3 kmh 30.03 in1016.9 mb 0.00 in0.0 mm 0.00 in/hr0.0 mm/hr 1.08 in27.4 mm
11:37 PM 40.5°F4.7°C 40.5°F4.7°C 100% 4.1 mph ESE6.6 kmh ESE 5.8 mph9.3 kmh 30.03 in1016.9 mb 0.00 in0.0 mm 0.00 in/hr0.0 mm/hr 1.08 in27.4 mm
11:42 PM 40.3°F4.6°C 40.3°F4.6°C 100% 3.5 mph ESE5.6 kmh ESE 5.8 mph9.3 kmh 30.03 in1016.9 mb 0.00 in0.0 mm 0.00 in/hr0.0 mm/hr 1.08 in27.4 mm
11:47 PM 40.1°F4.5°C 40.1°F4.5°C 100% 2.9 mph ESE4.7 kmh ESE 4.0 mph6.4 kmh 30.03 in1016.9 mb 0.00 in0.0 mm 0.00 in/hr0.0 mm/hr 1.08 in27.4 mm
11:52 PM 40.1°F4.5°C 40.1°F4.5°C 100% 2.6 mph ESE4.2 kmh ESE 5.4 mph8.7 kmh 30.03 in1016.9 mb 0.00 in0.0 mm 0.00 in/hr0.0 mm/hr 1.08 in27.4 mm
11:57 PM 40.1°F4.5°C 40.1°F4.5°C 100% 3.5 mph ESE5.6 kmh ESE 5.4 mph8.7 kmh 30.00 in1015.9 mb 0.00 in0.0 mm 0.00 in/hr0.0 mm/hr 1.08 in27.4 mm